Time;durP1;ratioP1;P1;durP2;ratioP2;P2;SDS_P1;SDS_P2;PMS_P1;PMS_P2;Temp;Humidity;BMP_temperature;BMP_pressure;BME280_temperature;BME280_humidity;BME280_pressure;Samples;Min_cycle;Max_cycle;Signal;HPM_P1;HPM_P2
2021/10/10 00:02:16;;;;;;;0.70;0.60;;;;;;;7.04;100.00;-15483.59;4974375;28;20483;-71
2021/10/10 00:04:45;;;;;;;0.80;0.70;;;;;;;7.04;100.00;-14730.31;4973456;28;20971;-72
2021/10/10 00:07:11;;;;;;;1.30;1.20;;;;;;;6.94;100.00;-14321.91;4966210;28;20806;-72
2021/10/10 00:09:38;;;;;;;0.70;0.60;;;;;;;6.90;100.00;-13872.16;4955512;28;20457;-72
2021/10/10 00:12:06;;;;;;;0.70;0.60;;;;;;;6.84;100.00;-13489.47;4963419;28;20446;-72
2021/10/10 00:14:33;;;;;;;0.70;0.60;;;;;;;6.90;100.00;-13046.22;4973698;28;20428;-72
2021/10/10 00:17:01;;;;;;;0.70;0.60;;;;;;;6.87;100.00;-12529.22;4975399;28;20451;-71
2021/10/10 00:19:28;;;;;;;0.70;0.60;;;;;;;7.00;100.00;-12026.66;4973652;28;20474;-72
2021/10/10 00:21:57;;;;;;;0.70;0.60;;;;;;;7.09;100.00;-11600.75;4974895;28;20465;-72
2021/10/10 00:24:24;;;;;;;0.80;0.70;;;;;;;6.99;100.00;-11492.22;4974959;28;20585;-72
2021/10/10 00:26:54;;;;;;;0.70;0.70;;;;;;;6.94;100.00;-11406.66;4973322;28;20444;-72
2021/10/10 00:29:21;;;;;;;0.70;0.60;;;;;;;6.85;100.00;-11283.22;4956667;28;20237;-72
2021/10/10 00:31:49;;;;;;;0.70;0.60;;;;;;;6.77;100.00;-11214.97;4956075;28;20441;-72
2021/10/10 00:34:16;;;;;;;0.70;0.63;;;;;;;6.75;100.00;-11039.97;4954770;29;20439;-72
2021/10/10 00:36:43;;;;;;;0.70;0.60;;;;;;;6.69;100.00;-10894.41;4962234;28;20913;-71
2021/10/10 00:39:17;;;;;;;0.90;0.90;;;;;;;6.58;100.00;-10915.69;4973675;28;20476;-72
2021/10/10 00:41:55;;;;;;;0.70;0.70;;;;;;;6.57;100.00;-10725.88;4973601;28;20473;-73
2021/10/10 00:44:26;;;;;;;0.70;0.60;;;;;;;6.53;100.00;-10653.03;4974353;28;20481;-72
2021/10/10 00:46:56;;;;;;;0.70;0.60;;;;;;;6.49;100.00;-10620.16;4975087;28;20492;-73
2021/10/10 00:49:27;;;;;;;0.70;0.60;;;;;;;6.47;100.00;-10634.91;4976817;28;20463;-73
2021/10/10 00:52:00;;;;;;;0.70;0.70;;;;;;;6.43;100.00;-10604.53;4972264;28;20443;-73
2021/10/10 00:54:35;;;;;;;0.70;0.63;;;;;;;6.39;100.00;-10661.47;4988771;28;20563;-72
2021/10/10 00:57:09;;;;;;;0.70;0.70;;;;;;;6.36;100.00;-10726.06;4969952;28;20450;-73
2021/10/10 00:59:44;;;;;;;0.70;0.60;;;;;;;6.38;100.00;-10668.84;4970817;28;20200;-71
2021/10/10 01:02:41;;;;;;;0.70;0.70;;;;;;;6.44;100.00;-10769.34;4974813;28;20571;-71
2021/10/10 01:05:13;;;;;;;0.75;0.70;;;;;;;6.44;100.00;-10886.63;4957632;28;20232;-71
2021/10/10 01:07:44;;;;;;;0.70;0.60;;;;;;;6.39;100.00;-11030.78;4973337;28;20258;-72
2021/10/10 01:10:21;;;;;;;1.00;0.83;;;;;;;6.40;100.00;-11213.03;4972674;28;20307;-71
2021/10/10 01:12:56;;;;;;;0.70;0.60;;;;;;;6.34;100.00;-11606.47;4973412;28;20887;-71
2021/10/10 01:15:29;;;;;;;0.70;0.60;;;;;;;6.42;100.00;-11527.63;4974677;28;20273;-72
2021/10/10 01:18:02;;;;;;;1.50;1.40;;;;;;;6.35;100.00;-11663.97;4975302;28;20648;-71
2021/10/10 01:20:46;;;;;;;0.70;0.70;;;;;;;6.33;100.00;-11800.91;4974537;28;20177;-72
2021/10/10 01:23:17;;;;;;;0.70;0.63;;;;;;;6.32;100.00;-12020.25;4972628;28;20557;-71
2021/10/10 01:25:50;;;;;;;1.00;1.00;;;;;;;6.33;100.00;-12244.84;4972549;28;20204;-71
2021/10/10 01:28:21;;;;;;;0.70;0.60;;;;;;;6.23;100.00;-12475.50;4973149;28;20214;-72
2021/10/10 01:30:54;;;;;;;0.70;0.60;;;;;;;6.17;100.00;-12601.81;4971574;28;20654;-72
2021/10/10 01:33:27;;;;;;;0.70;0.60;;;;;;;6.14;100.00;-12858.16;4973465;28;20192;-71
2021/10/10 01:36:17;;;;;;;0.70;0.60;;;;;;;6.01;100.00;-13142.91;4975165;28;20179;-72
2021/10/10 01:38:52;;;;;;;1.00;0.90;;;;;;;6.05;100.00;-13213.28;4974783;28;20576;-71
2021/10/10 01:41:30;;;;;;;0.70;0.60;;;;;;;5.98;100.00;-13418.97;4973018;28;20275;-71
2021/10/10 01:44:00;;;;;;;0.70;0.70;;;;;;;5.90;100.00;-13756.50;4973776;28;20200;-71
2021/10/10 01:46:34;;;;;;;0.70;0.60;;;;;;;5.83;100.00;-14002.03;4972829;28;20398;-72
2021/10/10 01:49:03;;;;;;;0.70;0.70;;;;;;;5.89;100.00;-14222.22;4972688;28;20598;-72
2021/10/10 01:51:32;;;;;;;0.80;0.80;;;;;;;5.98;100.00;-14393.06;4990271;28;20228;-72
2021/10/10 01:54:02;;;;;;;0.70;0.70;;;;;;;5.94;100.00;-14731.09;4978417;28;20248;-71
2021/10/10 01:56:30;;;;;;;0.70;0.70;;;;;;;5.97;100.00;-14806.34;4973079;28;20184;-71
2021/10/10 01:58:57;;;;;;;0.70;0.60;;;;;;;5.91;100.00;-15004.47;4972942;28;20200;-72
2021/10/10 02:01:24;;;;;;;0.70;0.60;;;;;;;5.84;100.00;-15262.13;4968749;28;20224;-72
2021/10/10 02:03:53;;;;;;;0.70;0.60;;;;;;;5.78;100.00;-15545.00;4969555;28;20213;-72
2021/10/10 02:06:20;;;;;;;0.70;0.68;;;;;;;5.77;100.00;-15733.97;4954165;28;20280;-71
2021/10/10 02:08:48;;;;;;;0.70;0.60;;;;;;;5.92;100.00;-15731.72;4953431;29;20217;-71
2021/10/10 02:11:16;;;;;;;0.80;0.70;;;;;;;5.92;100.00;-15786.47;4955425;28;20193;-71
2021/10/10 02:13:45;;;;;;;0.70;0.70;;;;;;;5.94;100.00;-15786.97;4973301;28;20675;-73
2021/10/10 02:16:12;;;;;;;0.70;0.60;;;;;;;6.07;100.00;-15697.28;4974468;28;20284;-71
2021/10/10 02:18:39;;;;;;;0.70;0.60;;;;;;;6.08;100.00;-15774.66;4977251;28;20251;-71
2021/10/10 02:21:06;;;;;;;1.33;1.08;;;;;;;5.96;100.00;-15919.31;4976032;28;20271;-71
2021/10/10 02:23:33;;;;;;;0.70;0.60;;;;;;;5.90;100.00;-16084.81;4976937;28;20765;-71
2021/10/10 02:26:02;;;;;;;0.70;0.60;;;;;;;5.78;100.00;-16348.91;4976028;28;20185;-71
2021/10/10 02:28:29;;;;;;;0.70;0.70;;;;;;;5.73;100.00;-16454.78;4968907;28;20224;-71
2021/10/10 02:30:56;;;;;;;0.70;0.60;;;;;;;5.65;100.00;-16677.03;4980123;28;20239;-72
2021/10/10 02:33:23;;;;;;;0.70;0.70;;;;;;;5.62;100.00;-16781.00;4976157;28;20192;-72
2021/10/10 02:35:50;;;;;;;0.70;0.70;;;;;;;5.56;100.00;-17013.53;4975981;28;20184;-73
2021/10/10 02:38:18;;;;;;;0.70;0.60;;;;;;;5.51;100.00;-17126.88;4975187;28;20238;-70
2021/10/10 02:40:45;;;;;;;0.70;0.70;;;;;;;5.50;100.00;-17360.41;4976474;28;20280;-72
2021/10/10 02:43:13;;;;;;;1.17;1.08;;;;;;;5.47;100.00;-17588.50;4976551;28;20218;-73
2021/10/10 02:45:40;;;;;;;0.80;0.80;;;;;;;5.51;100.00;-17768.41;4976924;28;20185;-73
2021/10/10 02:48:07;;;;;;;0.70;0.60;;;;;;;5.59;100.00;-17914.47;4975458;28;20220;-72
2021/10/10 02:50:35;;;;;;;0.80;0.70;;;;;;;5.52;100.00;-18166.47;4976632;28;20271;-73
2021/10/10 02:53:02;;;;;;;0.70;0.60;;;;;;;5.48;100.00;-18327.22;4976486;28;20207;-72
2021/10/10 02:55:30;;;;;;;0.70;0.70;;;;;;;5.45;100.00;-18522.88;4976653;28;20172;-75
2021/10/10 02:57:58;;;;;;;0.75;0.70;;;;;;;5.37;100.00;-18766.88;4974816;28;20219;-72
2021/10/10 03:00:27;;;;;;;0.70;0.70;;;;;;;5.30;100.00;-18964.19;4976343;28;20185;-73
2021/10/10 03:02:54;;;;;;;0.70;0.60;;;;;;;5.31;100.00;-19111.03;4973969;28;20263;-72
2021/10/10 03:05:21;;;;;;;0.70;0.70;;;;;;;5.31;100.00;-19235.25;4976194;28;20290;-73
2021/10/10 03:07:49;;;;;;;0.70;0.60;;;;;;;5.37;100.00;-19271.31;4976905;28;20621;-72
2021/10/10 03:10:15;;;;;;;0.70;0.60;;;;;;;5.49;100.00;-19314.09;4975311;28;20307;-73
2021/10/10 03:12:43;;;;;;;0.70;0.60;;;;;;;5.51;100.00;-19426.44;4976076;28;20601;-72
2021/10/10 03:15:12;;;;;;;0.70;0.70;;;;;;;5.52;100.00;-19548.59;4975806;28;20641;-71
2021/10/10 03:17:40;;;;;;;0.80;0.70;;;;;;;5.40;100.00;-19699.56;4976443;28;20188;-73
2021/10/10 03:20:12;;;;;;;0.70;0.60;;;;;;;5.36;100.00;-19772.91;4974831;28;20655;-73
2021/10/10 03:22:39;;;;;;;0.70;0.60;;;;;;;5.25;100.00;-19909.41;4975946;28;20651;-71
2021/10/10 03:25:06;;;;;;;0.70;0.60;;;;;;;5.21;100.00;-20007.69;4974554;28;20223;-72
2021/10/10 03:27:33;;;;;;;0.80;0.65;;;;;;;5.16;100.00;-20103.22;4974665;28;20675;-73
2021/10/10 03:30:00;;;;;;;0.75;0.73;;;;;;;5.09;100.00;-20203.28;4973784;28;20215;-72
2021/10/10 03:32:27;;;;;;;0.70;0.65;;;;;;;5.16;100.00;-20229.72;4975218;28;20699;-72
2021/10/10 03:34:55;;;;;;;1.10;1.00;;;;;;;5.11;100.00;-20307.81;4965032;28;20279;-73
2021/10/10 03:37:22;;;;;;;0.80;0.70;;;;;;;5.09;100.00;-20377.06;4975848;28;20203;-73
2021/10/10 03:39:49;;;;;;;0.70;0.70;;;;;;;4.98;100.00;-20493.09;4974988;28;20251;-72
2021/10/10 03:42:17;;;;;;;0.70;0.60;;;;;;;4.93;100.00;-20581.09;4976024;28;20207;-72
2021/10/10 03:44:46;;;;;;;0.70;0.70;;;;;;;4.95;100.00;-20636.25;4974311;28;20204;-73
2021/10/10 03:47:15;;;;;;;0.77;0.70;;;;;;;4.85;100.00;-20725.59;4975043;28;20196;-72
2021/10/10 03:49:42;;;;;;;0.70;0.60;;;;;;;4.87;100.00;-20748.19;4964394;28;20193;-73
2021/10/10 03:52:10;;;;;;;0.70;0.65;;;;;;;4.85;100.00;-20814.16;4969878;28;20577;-72
2021/10/10 03:57:23;;;;;;;0.70;0.60;;;;;;;4.90;100.00;-20815.56;4971502;28;20252;-72
2021/10/10 04:00:05;;;;;;;0.70;0.60;;;;;;;4.95;100.00;-20816.81;4956216;28;20283;-72
2021/10/10 04:02:37;;;;;;;0.70;0.70;;;;;;;4.90;100.00;-20815.56;4957978;28;20673;-72
2021/10/10 04:05:16;;;;;;;0.70;0.70;;;;;;;4.88;100.00;-20814.84;4974954;28;20200;-72
2021/10/10 04:07:44;;;;;;;0.70;0.65;;;;;;;4.85;100.00;-20814.28;4990314;28;20753;-74
2021/10/10 04:10:11;;;;;;;0.85;0.85;;;;;;;4.87;100.00;-20814.72;4973962;28;20518;-73
2021/10/10 04:12:38;;;;;;;0.70;0.60;;;;;;;4.84;100.00;-20814.00;4960334;28;20196;-72
2021/10/10 04:15:07;;;;;;;0.70;0.70;;;;;;;4.83;100.00;-20813.59;4955751;28;20201;-72
2021/10/10 04:17:34;;;;;;;0.98;0.98;;;;;;;4.86;100.00;-20814.44;4973436;28;20192;-73
2021/10/10 04:20:01;;;;;;;0.70;0.60;;;;;;;4.89;100.00;-20815.28;4973867;28;20200;-72
2021/10/10 04:22:28;;;;;;;0.70;0.70;;;;;;;4.94;100.00;-20816.53;4974470;28;20278;-72
2021/10/10 04:24:56;;;;;;;0.70;0.70;;;;;;;4.95;100.00;-20816.81;4974676;28;20274;-72
2021/10/10 04:27:24;;;;;;;0.70;0.70;;;;;;;4.91;100.00;-20815.69;4974891;28;20588;-72
2021/10/10 04:29:51;;;;;;;0.70;0.60;;;;;;;4.95;100.00;-20816.94;4973342;28;20200;-72
2021/10/10 04:32:18;;;;;;;0.75;0.70;;;;;;;4.93;100.00;-20816.25;4974075;28;20192;-72
2021/10/10 04:34:45;;;;;;;0.70;0.70;;;;;;;4.98;100.00;-20817.63;4974537;28;20242;-73
2021/10/10 04:37:12;;;;;;;0.70;0.60;;;;;;;4.98;100.00;-20817.63;4973456;28;20207;-72
2021/10/10 04:39:39;;;;;;;0.70;0.70;;;;;;;5.02;100.00;-20818.75;4974616;28;20220;-72
2021/10/10 04:42:08;;;;;;;0.70;0.60;;;;;;;4.99;100.00;-20817.91;4974302;28;20641;-73
2021/10/10 04:44:36;;;;;;;0.70;0.60;;;;;;;4.93;100.00;-20816.38;4973781;28;20216;-73
2021/10/10 04:47:03;;;;;;;0.70;0.60;;;;;;;5.00;100.00;-20818.19;4972866;28;20733;-72
2021/10/10 04:49:30;;;;;;;0.70;0.65;;;;;;;5.07;100.00;-20820.13;4975170;28;20190;-72
2021/10/10 04:51:57;;;;;;;0.70;0.60;;;;;;;5.25;100.00;-20825.16;4975005;28;20192;-72
2021/10/10 04:54:24;;;;;;;0.70;0.60;;;;;;;5.20;100.00;-20823.75;4975201;28;20244;-73
2021/10/10 04:56:51;;;;;;;0.70;0.70;;;;;;;5.28;100.00;-20825.84;4972984;28;20540;-72
2021/10/10 04:59:20;;;;;;;0.70;0.60;;;;;;;5.33;100.00;-20827.25;4972327;28;20273;-72
2021/10/10 05:01:47;;;;;;;0.70;0.60;;;;;;;5.26;100.00;-20825.28;4989456;28;20188;-73
2021/10/10 05:04:14;;;;;;;19.33;1.92;;;;;;;5.50;100.00;-20831.84;4974179;28;20223;-73
2021/10/10 05:06:41;;;;;;;0.70;0.60;;;;;;;5.52;100.00;-20832.53;4974838;28;20212;-72
2021/10/10 05:09:11;;;;;;;0.70;0.70;;;;;;;5.53;100.00;-20832.66;4974698;28;20696;-72
2021/10/10 05:11:38;;;;;;;0.80;0.70;;;;;;;5.60;100.00;-20834.47;4973100;28;20262;-71
2021/10/10 05:14:05;;;;;;;0.70;0.70;;;;;;;5.51;100.00;-20832.13;4972799;28;20187;-72
2021/10/10 05:16:36;;;;;;;0.70;0.65;;;;;;;5.35;100.00;-20827.81;4973936;28;20274;-72
2021/10/10 05:19:03;;;;;;;0.70;0.60;;;;;;;5.33;100.00;-20827.38;4989611;28;20247;-72
2021/10/10 05:21:30;;;;;;;0.70;0.70;;;;;;;5.41;100.00;-20829.31;4986202;28;20216;-72
2021/10/10 05:23:57;;;;;;;0.70;0.70;;;;;;;5.60;100.00;-20834.47;4972889;28;20247;-72
2021/10/10 05:26:25;;;;;;;0.90;0.90;;;;;;;5.57;100.00;-20833.91;4974302;28;20673;-72
2021/10/10 05:28:53;;;;;;;0.70;0.60;;;;;;;5.41;100.00;-20829.47;4973275;28;20192;-72
2021/10/10 05:31:20;;;;;;;0.70;0.60;;;;;;;5.41;100.00;-20829.31;4973921;28;20196;-72
2021/10/10 05:33:49;;;;;;;0.70;0.70;;;;;;;5.38;100.00;-20828.50;4974022;28;20184;-72
2021/10/10 05:36:16;;;;;;;0.70;0.70;;;;;;;5.60;100.00;-20834.63;4959636;28;20266;-73
2021/10/10 05:38:42;;;;;;;0.77;0.70;;;;;;;5.71;100.00;-20837.69;4973327;28;20768;-72
2021/10/10 05:41:10;;;;;;;0.80;0.80;;;;;;;5.79;100.00;-20839.91;4973735;28;20230;-72
2021/10/10 05:43:36;;;;;;;0.70;0.60;;;;;;;5.69;100.00;-20837.13;4988827;28;20677;-71
2021/10/10 05:46:03;;;;;;;1.52;1.42;;;;;;;5.62;100.00;-20835.03;4988586;28;20216;-72
2021/10/10 05:48:30;;;;;;;0.70;0.60;;;;;;;5.65;100.00;-20834.16;4971089;28;20376;-72
2021/10/10 05:50:59;;;;;;;0.70;0.63;;;;;;;5.51;100.00;-20832.13;4973137;28;20193;-72
2021/10/10 05:53:26;;;;;;;0.70;0.60;;;;;;;5.47;100.00;-20819.19;4973622;28;20342;-72
2021/10/10 05:55:58;;;;;;;0.70;0.60;;;;;;;5.44;100.00;-20753.78;4976203;28;20549;-72
2021/10/10 05:58:27;;;;;;;0.70;0.63;;;;;;;5.39;100.00;-20754.88;4976905;28;20212;-72
2021/10/10 06:00:54;;;;;;;0.70;0.60;;;;;;;5.37;100.00;-20736.94;4971425;28;20262;-72
2021/10/10 06:03:23;;;;;;;0.70;0.60;;;;;;;5.43;100.00;-20726.19;4976250;28;20218;-72
2021/10/10 06:05:50;;;;;;;0.70;0.60;;;;;;;5.42;100.00;-20760.69;4977173;28;20231;-72
2021/10/10 06:08:19;;;;;;;0.70;0.70;;;;;;;5.40;100.00;-20750.19;4976378;28;20216;-72
2021/10/10 06:10:46;;;;;;;0.70;0.60;;;;;;;5.48;100.00;-20685.34;4976572;28;20188;-73
2021/10/10 06:13:13;;;;;;;0.70;0.60;;;;;;;5.56;100.00;-20667.69;4964171;28;20267;-73
2021/10/10 06:15:41;;;;;;;0.70;0.70;;;;;;;5.74;100.00;-20625.41;4990459;28;20206;-72
2021/10/10 06:18:08;;;;;;;0.70;0.60;;;;;;;5.85;100.00;-20551.09;4991934;28;20239;-72
2021/10/10 06:20:35;;;;;;;0.70;0.60;;;;;;;5.95;100.00;-20444.47;4978027;28;20189;-72
2021/10/10 06:23:03;;;;;;;0.70;0.60;;;;;;;6.15;100.00;-20293.06;4979460;28;20268;-73
2021/10/10 06:25:32;;;;;;;0.70;0.70;;;;;;;6.18;100.00;-20192.03;4973829;28;20203;-72
2021/10/10 06:27:59;;;;;;;0.70;0.60;;;;;;;6.21;100.00;-20123.06;4976455;28;20176;-72
2021/10/10 06:30:26;;;;;;;0.70;0.60;;;;;;;6.21;100.00;-20041.09;4977194;28;20172;-72
2021/10/10 06:32:54;;;;;;;1.52;1.42;;;;;;;6.27;100.00;-19950.66;4976174;28;20448;-72
2021/10/10 06:35:20;;;;;;;0.70;0.70;;;;;;;6.34;100.00;-19847.72;4976456;28;20205;-72
2021/10/10 06:37:48;;;;;;;0.70;0.70;;;;;;;6.35;100.00;-19698.81;4975817;28;20316;-72
2021/10/10 06:40:15;;;;;;;0.73;0.70;;;;;;;6.56;100.00;-19549.69;4966390;28;20219;-72
2021/10/10 06:42:43;;;;;;;0.70;0.70;;;;;;;6.62;100.00;-19347.06;4992397;28;20181;-72
2021/10/10 06:45:12;;;;;;;0.70;0.60;;;;;;;6.72;100.00;-19073.31;4977090;28;20208;-72
2021/10/10 06:47:40;;;;;;;0.70;0.60;;;;;;;6.73;100.00;-18836.84;4976690;28;20517;-72
2021/10/10 06:50:08;;;;;;;0.70;0.60;;;;;;;6.60;100.00;-18701.69;4975629;28;20204;-73
2021/10/10 06:52:35;;;;;;;0.70;0.60;;;;;;;6.61;100.00;-18510.19;4977723;28;20224;-72
2021/10/10 06:55:02;;;;;;;0.70;0.60;;;;;;;6.63;100.00;-18455.88;4991287;28;20184;-72
2021/10/10 06:57:31;;;;;;;1.15;1.13;;;;;;;6.88;100.00;-18147.78;4975974;28;20524;-72
2021/10/10 07:00:00;;;;;;;0.70;0.60;;;;;;;7.06;100.00;-17778.13;4976251;28;20272;-74
2021/10/10 07:02:28;;;;;;;0.98;0.95;;;;;;;7.28;100.00;-17319.06;4976045;28;20950;-72
2021/10/10 07:04:56;;;;;;;0.70;0.70;;;;;;;7.38;100.00;-16904.78;4975544;28;20719;-71
2021/10/10 07:07:24;;;;;;;0.70;0.60;;;;;;;7.48;100.00;-16475.13;4976396;28;20208;-72
2021/10/10 07:09:51;;;;;;;0.70;0.60;;;;;;;7.57;100.00;-16015.25;4976164;28;20421;-71
2021/10/10 07:12:18;;;;;;;0.70;0.60;;;;;;;7.62;100.00;-15584.34;4990760;28;20432;-72
2021/10/10 07:14:47;;;;;;;0.70;0.60;;;;;;;7.63;100.00;-15212.53;4975557;28;20922;-72
2021/10/10 07:17:18;;;;;;;0.70;0.60;;;;;;;7.75;100.00;-14727.69;4957825;28;20458;-72
2021/10/10 07:19:52;;;;;;;0.70;0.70;;;;;;;7.85;100.00;-14247.09;4990800;28;20443;-73
2021/10/10 07:22:33;;;;;;;0.70;0.57;;;;;;;7.97;100.00;-13864.34;4975303;28;20198;-72
2021/10/10 07:25:07;;;;;;;0.70;0.70;;;;;;;7.93;100.00;-13531.19;4974364;28;20696;-71
2021/10/10 07:27:34;;;;;;;0.70;0.60;;;;;;;8.01;100.00;-13069.97;4975067;28;20259;-73
2021/10/10 07:30:04;;;;;;;0.70;0.60;;;;;;;7.96;100.00;-12729.28;4958412;28;20437;-72
2021/10/10 07:32:33;;;;;;;0.70;0.70;;;;;;;8.15;100.00;-12339.22;4956530;28;20456;-74
2021/10/10 07:35:00;;;;;;;0.70;0.60;;;;;;;8.22;100.00;-12112.53;4990700;28;20428;-72
2021/10/10 07:37:27;;;;;;;1.43;1.33;;;;;;;8.36;100.00;-11711.50;4976067;28;20510;-72
2021/10/10 07:39:55;;;;;;;0.90;0.90;;;;;;;8.45;100.00;-11447.31;4975855;28;20880;-72
2021/10/10 07:42:22;;;;;;;0.70;0.60;;;;;;;8.35;100.00;-11601.25;4975754;28;20423;-72
2021/10/10 07:44:52;;;;;;;0.70;0.70;;;;;;;8.33;100.00;-11901.25;4974959;28;20503;-72
2021/10/10 07:49:51;;;;;;;0.70;0.70;;;;;;;8.57;100.00;-12237.19;4975646;28;20431;-72
2021/10/10 07:52:20;;;;;;;0.70;0.60;;;;;;;8.70;100.00;-12712.16;4975405;28;20924;-72
2021/10/10 07:54:47;;;;;;;0.70;0.60;;;;;;;8.88;100.00;-13640.97;4974890;28;20917;-71
2021/10/10 07:57:14;;;;;;;0.70;0.60;;;;;;;9.00;100.00;-15272.25;4973657;28;20462;-72
2021/10/10 07:59:42;;;;;;;0.90;0.90;;;;;;;9.08;100.00;-17307.81;4975320;28;20440;-71
2021/10/10 08:02:09;;;;;;;1.27;1.00;;;;;;;9.17;100.00;-19210.38;4970403;28;21038;-72
2021/10/10 08:04:36;;;;;;;0.70;0.60;;;;;;;9.15;100.00;-20756.84;4970024;28;20494;-72
2021/10/10 08:07:04;;;;;;;0.70;0.60;;;;;;;9.31;100.00;-20935.41;4975167;28;20502;-72
2021/10/10 08:09:31;;;;;;;0.70;0.60;;;;;;;9.50;100.00;-20940.69;4974343;28;20462;-73
2021/10/10 08:11:58;;;;;;;4.90;1.07;;;;;;;9.57;100.00;-20942.63;4973403;28;20526;-72
2021/10/10 08:14:25;;;;;;;0.70;0.60;;;;;;;9.62;100.00;-20944.00;4973425;28;20969;-72
2021/10/10 08:16:52;;;;;;;0.70;0.67;;;;;;;9.58;100.00;-20942.78;4974094;28;20412;-72
2021/10/10 08:19:19;;;;;;;0.70;0.60;;;;;;;9.72;100.00;-20946.50;4973970;28;20892;-72
2021/10/10 08:21:48;;;;;;;0.80;0.70;;;;;;;9.73;100.00;-20946.78;4973683;28;21003;-72
2021/10/10 08:24:21;;;;;;;0.70;0.60;;;;;;;9.84;100.00;-20949.81;4974730;28;20503;-72
2021/10/10 08:26:48;;;;;;;0.70;0.70;;;;;;;10.00;100.00;-20954.13;4974514;28;20515;-72
2021/10/10 08:29:16;;;;;;;0.70;0.60;;;;;;;9.95;100.00;-20952.88;4973913;28;20440;-71
2021/10/10 08:31:43;;;;;;;0.70;0.60;;;;;;;10.03;100.00;-20955.09;4973146;28;20450;-71
2021/10/10 08:34:10;;;;;;;1.00;0.90;;;;;;;10.20;100.00;-20959.66;4974333;28;20521;-74
2021/10/10 08:36:46;;;;;;;0.70;0.60;;;;;;;10.44;100.00;-20966.03;4969660;28;20557;-73
2021/10/10 08:39:13;;;;;;;0.70;0.60;;;;;;;10.40;100.00;-20965.19;4985113;28;20477;-73
2021/10/10 08:41:46;;;;;;;0.70;0.60;;;;;;;10.56;100.00;-20969.34;4964663;28;20512;-71
2021/10/10 08:44:18;;;;;;;0.80;0.80;;;;;;;10.61;100.00;-20970.88;4973498;28;20518;-74
2021/10/10 08:46:45;;;;;;;0.70;0.70;;;;;;;10.55;100.00;-20969.22;4974688;28;20438;-72
2021/10/10 08:49:12;;;;;;;0.80;0.63;;;;;;;10.79;100.00;-20975.72;4973343;28;20478;-71
2021/10/10 08:51:39;;;;;;;0.70;0.60;;;;;;;11.38;100.00;-20991.59;4974588;28;20442;-71
2021/10/10 08:54:06;;;;;;;0.70;0.60;;;;;;;11.68;100.00;-20999.63;4973653;28;20471;-72
2021/10/10 08:56:33;;;;;;;0.70;0.63;;;;;;;11.87;100.00;-21004.88;4973565;28;20480;-72
2021/10/10 08:59:03;;;;;;;1.00;0.90;;;;;;;12.59;100.00;-21024.34;4974639;28;20518;-72
2021/10/10 09:01:34;;;;;;;0.90;0.80;;;;;;;12.71;100.00;-21027.50;4974971;28;20445;-72
2021/10/10 09:04:01;;;;;;;1.20;0.93;;;;;;;14.49;100.00;-21075.75;4974346;28;20485;-72
2021/10/10 09:06:31;;;;;;;1.10;1.00;;;;;;;15.13;100.00;-21092.81;4974304;28;20465;-72
2021/10/10 09:09:26;;;;;;;0.80;0.70;;;;;;;15.56;100.00;-21104.38;4972151;28;20472;-73
2021/10/10 09:11:57;;;;;;;1.70;1.07;;;;;;;16.45;100.00;-21128.28;4972495;28;20444;-71
2021/10/10 09:14:27;;;;;;;1.50;1.00;;;;;;;16.63;100.00;-21133.22;4972027;28;20534;-74
2021/10/10 09:17:09;;;;;;;0.80;0.70;;;;;;;16.87;100.00;-21139.81;4974035;28;20427;-73
2021/10/10 09:19:36;;;;;;;0.80;0.70;;;;;;;17.60;100.00;-21159.41;4969290;28;20743;-74
2021/10/10 09:22:06;;;;;;;2.23;0.90;;;;;;;17.49;100.00;-21156.25;4954676;28;20531;-73
2021/10/10 09:24:33;;;;;;;1.60;1.50;;;;;;;17.74;100.00;-21163.13;4964141;28;20791;-73
2021/10/10 09:27:05;;;;;;;0.80;0.70;;;;;;;17.78;100.00;-21164.22;4976696;28;20857;-72
2021/10/10 09:29:38;;;;;;;0.73;0.63;;;;;;;17.51;100.00;-21156.81;4993155;28;20464;-73
2021/10/10 09:32:09;;;;;;;0.70;0.60;;;;;;;17.94;100.00;-21168.47;4977848;28;20511;-72
2021/10/10 09:34:38;;;;;;;0.83;0.77;;;;;;;19.30;100.00;-21204.88;4977329;28;20517;-72
2021/10/10 09:37:08;;;;;;;0.93;0.90;;;;;;;18.41;100.00;-21180.94;4977303;28;20439;-72
2021/10/10 09:39:40;;;;;;;0.80;0.67;;;;;;;18.70;100.00;-21188.88;4976659;28;20411;-72
2021/10/10 09:42:30;;;;;;;0.80;0.73;;;;;;;19.13;100.00;-21200.38;4976569;28;20998;-73
2021/10/10 09:45:12;;;;;;;1.17;1.07;;;;;;;18.60;100.00;-21186.13;4977855;28;20514;-73
2021/10/10 09:47:51;;;;;;;3.13;0.90;;;;;;;18.26;100.00;-21177.09;4977212;28;20517;-73
2021/10/10 09:50:18;;;;;;;0.77;0.67;;;;;;;17.52;100.00;-21157.22;4977200;28;20447;-73
2021/10/10 09:52:46;;;;;;;1.73;1.23;;;;;;;18.23;100.00;-21176.13;4977069;28;20542;-73
2021/10/10 09:55:14;;;;;;;0.93;0.87;;;;;;;18.91;100.00;-21194.34;4973985;28;20736;-72
2021/10/10 09:57:48;;;;;;;0.70;0.60;;;;;;;18.59;100.00;-21186.00;4963345;28;20465;-73
2021/10/10 10:00:20;;;;;;;1.50;0.80;;;;;;;18.53;100.00;-21184.22;4977451;28;20996;-73
2021/10/10 10:02:50;;;;;;;0.97;0.90;;;;;;;18.75;100.00;-21190.25;4975601;28;20472;-73
2021/10/10 10:05:24;;;;;;;0.70;0.60;;;;;;;19.60;100.00;-21212.81;4976097;28;20470;-74
2021/10/10 10:07:53;;;;;;;0.80;0.70;;;;;;;19.38;100.00;-21206.94;4976741;28;20455;-74
2021/10/10 10:10:21;;;;;;;2.83;1.00;;;;;;;19.27;100.00;-21204.06;4977376;28;20436;-73
2021/10/10 10:12:51;;;;;;;1.57;1.17;;;;;;;19.02;100.00;-21197.34;4976859;28;20443;-74
2021/10/10 10:15:25;;;;;;;2.70;1.07;;;;;;;18.47;100.00;-21182.72;4976676;28;20431;-73
2021/10/10 10:17:53;;;;;;;1.10;1.00;;;;;;;18.10;100.00;-21172.84;4991624;28;20440;-73
2021/10/10 10:20:20;;;;;;;2.13;2.03;;;;;;;17.84;100.00;-21165.88;4976244;28;20546;-72
2021/10/10 10:22:51;;;;;;;0.80;0.70;;;;;;;17.70;100.00;-21162.03;4977223;28;20475;-73
2021/10/10 10:25:19;;;;;;;0.70;0.60;;;;;;;17.24;100.00;-21149.53;4975624;28;20474;-73
2021/10/10 10:27:49;;;;;;;0.80;0.70;;;;;;;17.85;100.00;-21166.00;4976634;28;20410;-73
2021/10/10 10:30:18;;;;;;;0.70;0.60;;;;;;;17.46;100.00;-21155.44;4976104;28;20428;-74
2021/10/10 10:32:47;;;;;;;0.80;0.73;;;;;;;17.79;100.00;-21164.50;4975732;28;20463;-75
2021/10/10 10:35:18;;;;;;;0.80;0.70;;;;;;;18.40;100.00;-21180.78;4974399;28;20456;-74
2021/10/10 10:37:56;;;;;;;1.20;0.80;;;;;;;18.91;100.00;-21194.34;4976850;28;20905;-73
2021/10/10 10:40:36;;;;;;;0.80;0.70;;;;;;;19.38;100.00;-21207.06;4975452;28;20427;-73
2021/10/10 10:43:04;;;;;;;2.23;1.27;;;;;;;19.07;100.00;-21198.72;4975355;28;20443;-74
2021/10/10 10:45:34;;;;;;;0.80;0.63;;;;;;;20.21;100.00;-21229.34;4975668;28;20585;-72
2021/10/10 10:48:06;;;;;;;1.93;1.07;;;;;;;20.69;100.00;-21242.06;4975938;28;20498;-74
2021/10/10 10:50:37;;;;;;;0.77;0.70;;;;;;;20.00;100.00;-21223.75;4958672;28;20803;-73
2021/10/10 10:53:06;;;;;;;0.70;0.60;;;;;;;20.27;100.00;-21231.00;4976616;28;20551;-73
2021/10/10 10:55:34;;;;;;;0.80;0.70;;;;;;;20.30;100.00;-21231.53;4975355;28;20443;-73
2021/10/10 10:58:11;;;;;;;0.80;0.80;;;;;;;20.29;100.00;-21231.41;4974655;28;20490;-73
2021/10/10 11:00:40;;;;;;;1.83;1.53;;;;;;;20.78;100.00;-21244.38;4976100;28;20967;-73
2021/10/10 11:03:13;;;;;;;0.70;0.60;;;;;;;20.89;100.00;-21247.50;4976062;28;20443;-73
2021/10/10 11:05:50;;;;;;;0.83;0.83;;;;;;;21.73;100.00;-21269.75;4975112;28;20515;-73
2021/10/10 11:08:38;;;;;;;0.70;0.60;;;;;;;21.58;100.00;-21265.94;4973881;28;20471;-73
2021/10/10 11:11:20;;;;;;;0.77;0.70;;;;;;;21.86;100.00;-21273.44;4974867;28;20468;-73
2021/10/10 11:13:50;;;;;;;0.90;0.80;;;;;;;21.10;100.00;-21253.09;4972758;28;20448;-73
2021/10/10 11:16:19;;;;;;;0.70;0.63;;;;;;;20.26;100.00;-21230.72;4976222;28;20771;-74
2021/10/10 11:18:50;;;;;;;0.97;0.90;;;;;;;19.44;100.00;-21208.56;4976047;28;20412;-74
2021/10/10 11:21:20;;;;;;;1.23;1.13;;;;;;;18.87;100.00;-21193.25;4975022;28;20435;-73
2021/10/10 11:23:50;;;;;;;0.90;0.80;;;;;;;18.35;100.00;-21179.56;4974489;28;20882;-74
2021/10/10 11:26:19;;;;;;;0.80;0.77;;;;;;;18.51;100.00;-21183.66;4989504;28;20541;-73
2021/10/10 11:28:48;;;;;;;1.63;0.90;;;;;;;18.35;100.00;-21179.56;4959774;28;20468;-74
2021/10/10 11:31:17;;;;;;;0.80;0.60;;;;;;;18.28;100.00;-21177.66;4976062;28;20416;-73
2021/10/10 11:33:45;;;;;;;0.80;0.70;;;;;;;18.17;100.00;-21174.63;4974872;28;20448;-73
2021/10/10 11:36:15;;;;;;;0.70;0.70;;;;;;;18.31;100.00;-21178.47;4975052;28;20447;-73
2021/10/10 11:38:47;;;;;;;0.80;0.80;;;;;;;18.45;100.00;-21182.03;4975631;28;20493;-73